sensor_id;sensor_type;location;lat;lon;timestamp;P1;durP1;ratioP1;P2;durP2;ratioP2
10303;SDS011;5197;48.152;8.590;2023-08-24T00:00:22;5.30;;;4.53;;
10303;SDS011;5197;48.152;8.590;2023-08-24T00:02:49;3.80;;;3.60;;
10303;SDS011;5197;48.152;8.590;2023-08-24T00:05:16;7.90;;;4.15;;
10303;SDS011;5197;48.152;8.590;2023-08-24T00:07:43;6.57;;;4.05;;
10303;SDS011;5197;48.152;8.590;2023-08-24T00:10:10;4.43;;;4.03;;
10303;SDS011;5197;48.152;8.590;2023-08-24T00:12:37;6.22;;;4.00;;
10303;SDS011;5197;48.152;8.590;2023-08-24T00:15:07;5.25;;;4.22;;
10303;SDS011;5197;48.152;8.590;2023-08-24T00:17:35;4.20;;;3.92;;
10303;SDS011;5197;48.152;8.590;2023-08-24T00:20:03;6.43;;;4.10;;
10303;SDS011;5197;48.152;8.590;2023-08-24T00:22:34;8.98;;;4.20;;
10303;SDS011;5197;48.152;8.590;2023-08-24T00:25:01;6.78;;;3.90;;
10303;SDS011;5197;48.152;8.590;2023-08-24T00:27:28;4.75;;;4.20;;
10303;SDS011;5197;48.152;8.590;2023-08-24T00:29:55;5.60;;;4.28;;
10303;SDS011;5197;48.152;8.590;2023-08-24T00:32:22;5.00;;;4.22;;
10303;SDS011;5197;48.152;8.590;2023-08-24T00:34:50;5.13;;;4.55;;
10303;SDS011;5197;48.152;8.590;2023-08-24T00:37:17;7.35;;;4.63;;
10303;SDS011;5197;48.152;8.590;2023-08-24T00:39:44;4.80;;;4.32;;
10303;SDS011;5197;48.152;8.590;2023-08-24T00:42:11;6.47;;;4.20;;
10303;SDS011;5197;48.152;8.590;2023-08-24T00:44:41;7.25;;;4.88;;
10303;SDS011;5197;48.152;8.590;2023-08-24T00:47:10;5.35;;;4.43;;
10303;SDS011;5197;48.152;8.590;2023-08-24T00:49:37;4.78;;;4.25;;
10303;SDS011;5197;48.152;8.590;2023-08-24T00:52:04;5.15;;;4.57;;
10303;SDS011;5197;48.152;8.590;2023-08-24T00:54:31;5.25;;;4.75;;
10303;SDS011;5197;48.152;8.590;2023-08-24T00:56:59;4.93;;;4.43;;
10303;SDS011;5197;48.152;8.590;2023-08-24T00:59:26;9.27;;;5.65;;
10303;SDS011;5197;48.152;8.590;2023-08-24T01:01:53;5.10;;;4.60;;
10303;SDS011;5197;48.152;8.590;2023-08-24T01:04:21;5.57;;;4.80;;
10303;SDS011;5197;48.152;8.590;2023-08-24T01:06:49;4.68;;;4.28;;
10303;SDS011;5197;48.152;8.590;2023-08-24T01:09:18;5.20;;;4.32;;
10303;SDS011;5197;48.152;8.590;2023-08-24T01:11:53;4.82;;;4.35;;
10303;SDS011;5197;48.152;8.590;2023-08-24T01:17:14;6.37;;;4.13;;
10303;SDS011;5197;48.152;8.590;2023-08-24T01:19:45;4.40;;;4.10;;
10303;SDS011;5197;48.152;8.590;2023-08-24T01:24:45;5.50;;;4.10;;
10303;SDS011;5197;48.152;8.590;2023-08-24T01:27:19;6.28;;;4.28;;
10303;SDS011;5197;48.152;8.590;2023-08-24T01:29:47;5.70;;;4.50;;
10303;SDS011;5197;48.152;8.590;2023-08-24T01:32:16;7.82;;;4.80;;
10303;SDS011;5197;48.152;8.590;2023-08-24T01:34:44;7.77;;;4.70;;
10303;SDS011;5197;48.152;8.590;2023-08-24T01:37:10;8.40;;;4.22;;
10303;SDS011;5197;48.152;8.590;2023-08-24T01:39:42;5.67;;;5.00;;
10303;SDS011;5197;48.152;8.590;2023-08-24T01:42:19;7.70;;;4.85;;
10303;SDS011;5197;48.152;8.590;2023-08-24T01:44:50;7.70;;;5.10;;
10303;SDS011;5197;48.152;8.590;2023-08-24T01:47:20;5.47;;;4.97;;
10303;SDS011;5197;48.152;8.590;2023-08-24T01:49:49;5.77;;;4.80;;
10303;SDS011;5197;48.152;8.590;2023-08-24T01:52:16;5.30;;;4.80;;
10303;SDS011;5197;48.152;8.590;2023-08-24T01:54:44;5.57;;;5.07;;
10303;SDS011;5197;48.152;8.590;2023-08-24T01:57:11;5.93;;;5.43;;
10303;SDS011;5197;48.152;8.590;2023-08-24T01:59:38;5.60;;;5.10;;
10303;SDS011;5197;48.152;8.590;2023-08-24T02:02:06;7.13;;;4.63;;
10303;SDS011;5197;48.152;8.590;2023-08-24T02:04:33;7.83;;;4.80;;
10303;SDS011;5197;48.152;8.590;2023-08-24T02:07:00;5.70;;;5.03;;
10303;SDS011;5197;48.152;8.590;2023-08-24T02:09:27;5.90;;;5.27;;
10303;SDS011;5197;48.152;8.590;2023-08-24T02:11:55;7.73;;;5.17;;
10303;SDS011;5197;48.152;8.590;2023-08-24T02:14:22;6.30;;;5.30;;
10303;SDS011;5197;48.152;8.590;2023-08-24T02:16:49;5.93;;;5.33;;
10303;SDS011;5197;48.152;8.590;2023-08-24T02:19:16;6.03;;;5.40;;
10303;SDS011;5197;48.152;8.590;2023-08-24T02:21:43;6.07;;;5.47;;
10303;SDS011;5197;48.152;8.590;2023-08-24T02:24:10;10.47;;;5.50;;
10303;SDS011;5197;48.152;8.590;2023-08-24T02:26:37;6.97;;;6.30;;
10303;SDS011;5197;48.152;8.590;2023-08-24T02:29:04;5.87;;;5.27;;
10303;SDS011;5197;48.152;8.590;2023-08-24T02:31:31;6.87;;;5.20;;
10303;SDS011;5197;48.152;8.590;2023-08-24T02:33:59;6.93;;;5.20;;
10303;SDS011;5197;48.152;8.590;2023-08-24T02:36:26;5.47;;;4.97;;
10303;SDS011;5197;48.152;8.590;2023-08-24T02:38:54;7.13;;;5.10;;
10303;SDS011;5197;48.152;8.590;2023-08-24T02:41:21;6.97;;;5.80;;
10303;SDS011;5197;48.152;8.590;2023-08-24T02:43:48;5.67;;;5.00;;
10303;SDS011;5197;48.152;8.590;2023-08-24T02:46:15;5.27;;;4.83;;
10303;SDS011;5197;48.152;8.590;2023-08-24T02:48:44;8.20;;;5.57;;
10303;SDS011;5197;48.152;8.590;2023-08-24T02:51:12;6.23;;;5.40;;
10303;SDS011;5197;48.152;8.590;2023-08-24T02:53:40;5.43;;;4.87;;
10303;SDS011;5197;48.152;8.590;2023-08-24T02:56:07;6.80;;;4.83;;
10303;SDS011;5197;48.152;8.590;2023-08-24T02:58:34;6.47;;;5.20;;
10303;SDS011;5197;48.152;8.590;2023-08-24T03:01:04;5.80;;;5.03;;
10303;SDS011;5197;48.152;8.590;2023-08-24T03:03:36;5.33;;;4.83;;
10303;SDS011;5197;48.152;8.590;2023-08-24T03:06:04;5.60;;;5.10;;
10303;SDS011;5197;48.152;8.590;2023-08-24T03:08:33;8.10;;;5.43;;
10303;SDS011;5197;48.152;8.590;2023-08-24T03:11:02;5.83;;;5.33;;
10303;SDS011;5197;48.152;8.590;2023-08-24T03:13:29;8.77;;;4.80;;
10303;SDS011;5197;48.152;8.590;2023-08-24T03:15:57;9.90;;;5.37;;
10303;SDS011;5197;48.152;8.590;2023-08-24T03:18:29;5.33;;;4.90;;
10303;SDS011;5197;48.152;8.590;2023-08-24T03:20:56;5.27;;;4.73;;
10303;SDS011;5197;48.152;8.590;2023-08-24T03:23:26;5.77;;;5.07;;
10303;SDS011;5197;48.152;8.590;2023-08-24T03:25:55;6.17;;;5.13;;
10303;SDS011;5197;48.152;8.590;2023-08-24T03:28:23;8.43;;;4.80;;
10303;SDS011;5197;48.152;8.590;2023-08-24T03:30:51;5.10;;;4.70;;
10303;SDS011;5197;48.152;8.590;2023-08-24T03:33:19;5.57;;;5.03;;
10303;SDS011;5197;48.152;8.590;2023-08-24T03:35:46;5.80;;;5.20;;
10303;SDS011;5197;48.152;8.590;2023-08-24T03:38:13;5.53;;;5.03;;
10303;SDS011;5197;48.152;8.590;2023-08-24T03:40:40;5.60;;;5.10;;
10303;SDS011;5197;48.152;8.590;2023-08-24T03:43:08;5.43;;;4.90;;
10303;SDS011;5197;48.152;8.590;2023-08-24T03:45:35;5.27;;;4.87;;
10303;SDS011;5197;48.152;8.590;2023-08-24T03:48:02;5.97;;;5.47;;
10303;SDS011;5197;48.152;8.590;2023-08-24T03:50:29;7.40;;;5.33;;
10303;SDS011;5197;48.152;8.590;2023-08-24T03:52:57;7.83;;;4.97;;
10303;SDS011;5197;48.152;8.590;2023-08-24T03:55:24;6.60;;;5.87;;
10303;SDS011;5197;48.152;8.590;2023-08-24T03:57:51;5.97;;;5.37;;
10303;SDS011;5197;48.152;8.590;2023-08-24T04:00:21;7.17;;;5.40;;
10303;SDS011;5197;48.152;8.590;2023-08-24T04:02:48;6.03;;;5.37;;
10303;SDS011;5197;48.152;8.590;2023-08-24T04:05:15;5.50;;;4.90;;
10303;SDS011;5197;48.152;8.590;2023-08-24T04:07:42;6.60;;;5.47;;
10303;SDS011;5197;48.152;8.590;2023-08-24T04:10:10;7.67;;;5.27;;
10303;SDS011;5197;48.152;8.590;2023-08-24T04:12:38;5.93;;;5.17;;
10303;SDS011;5197;48.152;8.590;2023-08-24T04:15:05;6.57;;;5.70;;
10303;SDS011;5197;48.152;8.590;2023-08-24T04:17:32;6.37;;;5.30;;
10303;SDS011;5197;48.152;8.590;2023-08-24T04:19:59;5.40;;;5.10;;
10303;SDS011;5197;48.152;8.590;2023-08-24T04:22:27;6.03;;;5.50;;
10303;SDS011;5197;48.152;8.590;2023-08-24T04:24:54;5.67;;;5.10;;
10303;SDS011;5197;48.152;8.590;2023-08-24T04:27:21;6.13;;;5.30;;
10303;SDS011;5197;48.152;8.590;2023-08-24T04:29:48;5.60;;;5.17;;
10303;SDS011;5197;48.152;8.590;2023-08-24T04:32:15;6.00;;;5.17;;
10303;SDS011;5197;48.152;8.590;2023-08-24T04:34:43;6.20;;;5.30;;
10303;SDS011;5197;48.152;8.590;2023-08-24T04:37:11;6.67;;;4.80;;
10303;SDS011;5197;48.152;8.590;2023-08-24T04:39:38;8.00;;;5.30;;
10303;SDS011;5197;48.152;8.590;2023-08-24T04:42:06;5.17;;;4.73;;
10303;SDS011;5197;48.152;8.590;2023-08-24T04:44:35;6.00;;;5.47;;
10303;SDS011;5197;48.152;8.590;2023-08-24T04:47:03;6.37;;;5.77;;
10303;SDS011;5197;48.152;8.590;2023-08-24T04:49:30;5.97;;;5.17;;
10303;SDS011;5197;48.152;8.590;2023-08-24T04:51:57;7.63;;;5.47;;
10303;SDS011;5197;48.152;8.590;2023-08-24T04:54:24;6.53;;;4.87;;
10303;SDS011;5197;48.152;8.590;2023-08-24T04:56:51;7.53;;;5.30;;
10303;SDS011;5197;48.152;8.590;2023-08-24T04:59:19;7.37;;;5.17;;
10303;SDS011;5197;48.152;8.590;2023-08-24T05:01:46;5.37;;;4.80;;
10303;SDS011;5197;48.152;8.590;2023-08-24T05:04:13;5.37;;;4.97;;
10303;SDS011;5197;48.152;8.590;2023-08-24T05:06:40;7.20;;;5.13;;
10303;SDS011;5197;48.152;8.590;2023-08-24T05:09:07;5.33;;;4.80;;
10303;SDS011;5197;48.152;8.590;2023-08-24T05:11:34;6.93;;;5.07;;
10303;SDS011;5197;48.152;8.590;2023-08-24T05:14:04;8.37;;;5.20;;
10303;SDS011;5197;48.152;8.590;2023-08-24T05:16:31;8.23;;;5.50;;
10303;SDS011;5197;48.152;8.590;2023-08-24T05:18:58;9.83;;;5.27;;
10303;SDS011;5197;48.152;8.590;2023-08-24T05:21:25;7.87;;;5.50;;
10303;SDS011;5197;48.152;8.590;2023-08-24T05:23:52;5.97;;;4.83;;
10303;SDS011;5197;48.152;8.590;2023-08-24T05:26:19;5.47;;;5.07;;
10303;SDS011;5197;48.152;8.590;2023-08-24T05:28:49;6.43;;;5.20;;
10303;SDS011;5197;48.152;8.590;2023-08-24T05:31:43;5.50;;;5.00;;
10303;SDS011;5197;48.152;8.590;2023-08-24T05:34:22;5.40;;;4.90;;
10303;SDS011;5197;48.152;8.590;2023-08-24T05:36:53;5.77;;;5.27;;
10303;SDS011;5197;48.152;8.590;2023-08-24T05:39:21;6.93;;;5.60;;
10303;SDS011;5197;48.152;8.590;2023-08-24T05:44:35;6.73;;;4.53;;
10303;SDS011;5197;48.152;8.590;2023-08-24T05:47:05;7.03;;;5.27;;
10303;SDS011;5197;48.152;8.590;2023-08-24T05:49:33;10.27;;;5.23;;
10303;SDS011;5197;48.152;8.590;2023-08-24T05:52:00;4.93;;;4.53;;
10303;SDS011;5197;48.152;8.590;2023-08-24T05:54:27;5.33;;;4.93;;
10303;SDS011;5197;48.152;8.590;2023-08-24T05:56:59;6.07;;;4.93;;
10303;SDS011;5197;48.152;8.590;2023-08-24T05:59:33;9.57;;;5.03;;
10303;SDS011;5197;48.152;8.590;2023-08-24T06:02:13;11.23;;;4.93;;
10303;SDS011;5197;48.152;8.590;2023-08-24T06:04:45;10.63;;;5.40;;
10303;SDS011;5197;48.152;8.590;2023-08-24T06:07:16;8.55;;;5.18;;
10303;SDS011;5197;48.152;8.590;2023-08-24T06:09:48;11.68;;;5.25;;
10303;SDS011;5197;48.152;8.590;2023-08-24T06:12:19;14.45;;;5.75;;
10303;SDS011;5197;48.152;8.590;2023-08-24T06:14:49;8.38;;;5.30;;
10303;SDS011;5197;48.152;8.590;2023-08-24T06:17:20;8.00;;;5.43;;
10303;SDS011;5197;48.152;8.590;2023-08-24T06:19:49;8.70;;;5.28;;
10303;SDS011;5197;48.152;8.590;2023-08-24T06:22:16;5.95;;;4.80;;
10303;SDS011;5197;48.152;8.590;2023-08-24T06:24:43;7.45;;;5.25;;
10303;SDS011;5197;48.152;8.590;2023-08-24T06:27:10;5.75;;;4.93;;
10303;SDS011;5197;48.152;8.590;2023-08-24T06:29:42;8.00;;;5.60;;
10303;SDS011;5197;48.152;8.590;2023-08-24T06:32:10;6.15;;;5.35;;
10303;SDS011;5197;48.152;8.590;2023-08-24T06:34:37;6.22;;;5.55;;
10303;SDS011;5197;48.152;8.590;2023-08-24T06:37:07;6.57;;;4.75;;
10303;SDS011;5197;48.152;8.590;2023-08-24T06:43:28;10.13;;;5.32;;
10303;SDS011;5197;48.152;8.590;2023-08-24T06:45:56;6.22;;;4.78;;
10303;SDS011;5197;48.152;8.590;2023-08-24T06:48:24;6.13;;;4.53;;
10303;SDS011;5197;48.152;8.590;2023-08-24T06:50:51;9.98;;;4.43;;
10303;SDS011;5197;48.152;8.590;2023-08-24T06:53:18;6.60;;;4.88;;
10303;SDS011;5197;48.152;8.590;2023-08-24T06:55:46;5.30;;;4.75;;
10303;SDS011;5197;48.152;8.590;2023-08-24T06:58:13;6.70;;;5.10;;
10303;SDS011;5197;48.152;8.590;2023-08-24T07:00:42;8.02;;;5.10;;
10303;SDS011;5197;48.152;8.590;2023-08-24T07:03:11;5.68;;;5.10;;
10303;SDS011;5197;48.152;8.590;2023-08-24T07:05:39;5.28;;;4.78;;
10303;SDS011;5197;48.152;8.590;2023-08-24T07:08:06;6.72;;;5.10;;
10303;SDS011;5197;48.152;8.590;2023-08-24T07:10:33;6.50;;;5.15;;
10303;SDS011;5197;48.152;8.590;2023-08-24T07:13:00;5.30;;;4.25;;
10303;SDS011;5197;48.152;8.590;2023-08-24T07:15:28;5.60;;;3.80;;
10303;SDS011;5197;48.152;8.590;2023-08-24T07:17:55;6.95;;;3.90;;
10303;SDS011;5197;48.152;8.590;2023-08-24T07:20:22;6.75;;;3.90;;
10303;SDS011;5197;48.152;8.590;2023-08-24T07:22:50;6.72;;;4.47;;
10303;SDS011;5197;48.152;8.590;2023-08-24T07:25:17;8.57;;;4.35;;
10303;SDS011;5197;48.152;8.590;2023-08-24T07:27:46;5.00;;;3.60;;
10303;SDS011;5197;48.152;8.590;2023-08-24T07:30:31;8.88;;;3.90;;
10303;SDS011;5197;48.152;8.590;2023-08-24T07:34:26;12.45;;;4.07;;
10303;SDS011;5197;48.152;8.590;2023-08-24T08:03:23;4.30;;;3.95;;
10303;SDS011;5197;48.152;8.590;2023-08-24T08:26:40;5.80;;;4.53;;
10303;SDS011;5197;48.152;8.590;2023-08-24T08:39:18;7.25;;;4.00;;
10303;SDS011;5197;48.152;8.590;2023-08-24T08:43:30;5.60;;;3.97;;
10303;SDS011;5197;48.152;8.590;2023-08-24T09:46:49;7.93;;;4.97;;
10303;SDS011;5197;48.152;8.590;2023-08-24T10:27:42;10.55;;;5.20;;
10303;SDS011;5197;48.152;8.590;2023-08-24T10:30:39;8.30;;;4.40;;
10303;SDS011;5197;48.152;8.590;2023-08-24T10:33:27;6.72;;;4.90;;
10303;SDS011;5197;48.152;8.590;2023-08-24T10:36:04;9.68;;;5.10;;
10303;SDS011;5197;48.152;8.590;2023-08-24T10:38:35;10.98;;;5.00;;
10303;SDS011;5197;48.152;8.590;2023-08-24T10:41:09;7.53;;;4.57;;
10303;SDS011;5197;48.152;8.590;2023-08-24T10:43:48;7.90;;;5.10;;
10303;SDS011;5197;48.152;8.590;2023-08-24T10:46:16;7.28;;;4.90;;
10303;SDS011;5197;48.152;8.590;2023-08-24T10:56:20;6.68;;;4.40;;
10303;SDS011;5197;48.152;8.590;2023-08-24T11:01:43;8.63;;;5.00;;
10303;SDS011;5197;48.152;8.590;2023-08-24T11:04:25;6.70;;;4.75;;
10303;SDS011;5197;48.152;8.590;2023-08-24T11:09:22;5.20;;;4.60;;
10303;SDS011;5197;48.152;8.590;2023-08-24T11:12:00;6.47;;;4.60;;
10303;SDS011;5197;48.152;8.590;2023-08-24T11:14:29;6.30;;;4.47;;
10303;SDS011;5197;48.152;8.590;2023-08-24T11:16:59;10.95;;;4.93;;
10303;SDS011;5197;48.152;8.590;2023-08-24T11:19:26;7.18;;;4.50;;
10303;SDS011;5197;48.152;8.590;2023-08-24T11:21:54;8.30;;;4.53;;
10303;SDS011;5197;48.152;8.590;2023-08-24T11:24:22;7.72;;;4.47;;
10303;SDS011;5197;48.152;8.590;2023-08-24T11:26:50;7.68;;;4.53;;
10303;SDS011;5197;48.152;8.590;2023-08-24T11:29:19;11.20;;;5.65;;
10303;SDS011;5197;48.152;8.590;2023-08-24T11:31:46;13.13;;;5.03;;
10303;SDS011;5197;48.152;8.590;2023-08-24T11:34:17;11.07;;;4.72;;
10303;SDS011;5197;48.152;8.590;2023-08-24T11:36:46;6.35;;;4.40;;
10303;SDS011;5197;48.152;8.590;2023-08-24T11:39:18;6.15;;;4.60;;
10303;SDS011;5197;48.152;8.590;2023-08-24T11:41:56;9.73;;;4.60;;
10303;SDS011;5197;48.152;8.590;2023-08-24T11:44:28;6.57;;;4.70;;
10303;SDS011;5197;48.152;8.590;2023-08-24T11:46:56;8.07;;;4.70;;
10303;SDS011;5197;48.152;8.590;2023-08-24T11:49:25;8.60;;;4.80;;
10303;SDS011;5197;48.152;8.590;2023-08-24T11:51:54;5.57;;;4.28;;
10303;SDS011;5197;48.152;8.590;2023-08-24T11:54:23;8.02;;;4.65;;
10303;SDS011;5197;48.152;8.590;2023-08-24T11:56:51;11.27;;;5.50;;
10303;SDS011;5197;48.152;8.590;2023-08-24T11:59:19;6.78;;;4.80;;
10303;SDS011;5197;48.152;8.590;2023-08-24T12:01:50;6.97;;;4.50;;
10303;SDS011;5197;48.152;8.590;2023-08-24T12:04:20;10.10;;;4.57;;
10303;SDS011;5197;48.152;8.590;2023-08-24T12:06:47;9.13;;;4.57;;
10303;SDS011;5197;48.152;8.590;2023-08-24T12:09:15;7.45;;;4.40;;
10303;SDS011;5197;48.152;8.590;2023-08-24T12:11:42;10.30;;;4.53;;
10303;SDS011;5197;48.152;8.590;2023-08-24T12:14:16;8.02;;;4.32;;
10303;SDS011;5197;48.152;8.590;2023-08-24T12:16:45;9.98;;;4.43;;
10303;SDS011;5197;48.152;8.590;2023-08-24T12:19:14;6.68;;;4.40;;
10303;SDS011;5197;48.152;8.590;2023-08-24T12:21:43;6.25;;;4.32;;
10303;SDS011;5197;48.152;8.590;2023-08-24T12:24:13;11.70;;;4.32;;
10303;SDS011;5197;48.152;8.590;2023-08-24T12:26:41;7.15;;;4.47;;
10303;SDS011;5197;48.152;8.590;2023-08-24T12:29:08;6.78;;;4.40;;
10303;SDS011;5197;48.152;8.590;2023-08-24T12:31:36;16.52;;;4.88;;
10303;SDS011;5197;48.152;8.590;2023-08-24T12:34:08;9.65;;;4.20;;
10303;SDS011;5197;48.152;8.590;2023-08-24T12:36:37;12.98;;;4.63;;
10303;SDS011;5197;48.152;8.590;2023-08-24T12:39:05;12.05;;;4.30;;
10303;SDS011;5197;48.152;8.590;2023-08-24T12:41:34;10.60;;;5.15;;
10303;SDS011;5197;48.152;8.590;2023-08-24T12:44:01;9.10;;;4.20;;
10303;SDS011;5197;48.152;8.590;2023-08-24T12:46:35;9.20;;;4.70;;
10303;SDS011;5197;48.152;8.590;2023-08-24T12:49:03;15.30;;;4.60;;
10303;SDS011;5197;48.152;8.590;2023-08-24T12:51:31;6.82;;;4.50;;
10303;SDS011;5197;48.152;8.590;2023-08-24T12:53:58;10.57;;;4.60;;
10303;SDS011;5197;48.152;8.590;2023-08-24T12:56:25;9.02;;;4.65;;
10303;SDS011;5197;48.152;8.590;2023-08-24T12:58:52;7.45;;;4.18;;
10303;SDS011;5197;48.152;8.590;2023-08-24T13:01:20;9.00;;;4.28;;
10303;SDS011;5197;48.152;8.590;2023-08-24T13:03:48;9.95;;;3.97;;
10303;SDS011;5197;48.152;8.590;2023-08-24T13:06:15;8.45;;;4.22;;
10303;SDS011;5197;48.152;8.590;2023-08-24T13:08:45;8.60;;;4.57;;
10303;SDS011;5197;48.152;8.590;2023-08-24T13:11:12;6.40;;;4.28;;
10303;SDS011;5197;48.152;8.590;2023-08-24T13:13:39;9.93;;;4.65;;
10303;SDS011;5197;48.152;8.590;2023-08-24T13:16:07;13.60;;;4.82;;
10303;SDS011;5197;48.152;8.590;2023-08-24T13:18:34;11.05;;;4.97;;
10303;SDS011;5197;48.152;8.590;2023-08-24T13:21:02;7.60;;;4.00;;
10303;SDS011;5197;48.152;8.590;2023-08-24T13:23:29;10.13;;;4.13;;
10303;SDS011;5197;48.152;8.590;2023-08-24T13:25:57;13.85;;;4.47;;
10303;SDS011;5197;48.152;8.590;2023-08-24T13:28:25;12.63;;;4.18;;
10303;SDS011;5197;48.152;8.590;2023-08-24T13:30:53;10.32;;;4.03;;
10303;SDS011;5197;48.152;8.590;2023-08-24T13:33:20;12.85;;;4.25;;
10303;SDS011;5197;48.152;8.590;2023-08-24T13:35:47;13.82;;;4.43;;
10303;SDS011;5197;48.152;8.590;2023-08-24T13:38:14;11.25;;;3.75;;
10303;SDS011;5197;48.152;8.590;2023-08-24T13:40:42;12.77;;;4.40;;
10303;SDS011;5197;48.152;8.590;2023-08-24T13:43:11;14.23;;;3.90;;
10303;SDS011;5197;48.152;8.590;2023-08-24T13:45:39;10.68;;;3.67;;
10303;SDS011;5197;48.152;8.590;2023-08-24T13:48:06;11.98;;;4.32;;
10303;SDS011;5197;48.152;8.590;2023-08-24T13:50:35;10.10;;;4.00;;
10303;SDS011;5197;48.152;8.590;2023-08-24T13:53:02;12.48;;;4.32;;
10303;SDS011;5197;48.152;8.590;2023-08-24T13:55:29;10.32;;;4.10;;
10303;SDS011;5197;48.152;8.590;2023-08-24T13:57:57;8.88;;;3.83;;
10303;SDS011;5197;48.152;8.590;2023-08-24T14:00:25;14.00;;;4.25;;
10303;SDS011;5197;48.152;8.590;2023-08-24T14:02:52;11.02;;;4.10;;
10303;SDS011;5197;48.152;8.590;2023-08-24T14:05:20;11.52;;;3.85;;
10303;SDS011;5197;48.152;8.590;2023-08-24T14:07:48;11.60;;;4.10;;
10303;SDS011;5197;48.152;8.590;2023-08-24T14:10:15;13.88;;;4.60;;
10303;SDS011;5197;48.152;8.590;2023-08-24T14:12:42;9.15;;;4.10;;
10303;SDS011;5197;48.152;8.590;2023-08-24T14:15:09;11.65;;;4.55;;
10303;SDS011;5197;48.152;8.590;2023-08-24T14:17:37;15.93;;;4.70;;
10303;SDS011;5197;48.152;8.590;2023-08-24T14:20:05;10.18;;;3.83;;
10303;SDS011;5197;48.152;8.590;2023-08-24T14:22:35;9.88;;;4.40;;
10303;SDS011;5197;48.152;8.590;2023-08-24T14:25:02;13.32;;;4.40;;
10303;SDS011;5197;48.152;8.590;2023-08-24T14:27:29;7.93;;;3.85;;
10303;SDS011;5197;48.152;8.590;2023-08-24T14:29:56;14.25;;;4.40;;
10303;SDS011;5197;48.152;8.590;2023-08-24T14:32:24;15.07;;;4.55;;
10303;SDS011;5197;48.152;8.590;2023-08-24T14:34:51;12.73;;;4.57;;
10303;SDS011;5197;48.152;8.590;2023-08-24T14:37:18;9.35;;;3.85;;
10303;SDS011;5197;48.152;8.590;2023-08-24T14:39:45;16.92;;;4.00;;
10303;SDS011;5197;48.152;8.590;2023-08-24T14:42:12;10.48;;;4.07;;
10303;SDS011;5197;48.152;8.590;2023-08-24T14:44:40;10.02;;;4.38;;
10303;SDS011;5197;48.152;8.590;2023-08-24T14:47:07;9.15;;;4.35;;
10303;SDS011;5197;48.152;8.590;2023-08-24T14:49:34;9.25;;;3.95;;
10303;SDS011;5197;48.152;8.590;2023-08-24T14:52:01;12.63;;;4.32;;
10303;SDS011;5197;48.152;8.590;2023-08-24T14:54:28;12.82;;;4.32;;
10303;SDS011;5197;48.152;8.590;2023-08-24T14:56:55;9.70;;;4.05;;
10303;SDS011;5197;48.152;8.590;2023-08-24T14:59:24;17.25;;;4.63;;
10303;SDS011;5197;48.152;8.590;2023-08-24T15:01:51;12.52;;;3.83;;
10303;SDS011;5197;48.152;8.590;2023-08-24T15:04:20;13.85;;;4.40;;
10303;SDS011;5197;48.152;8.590;2023-08-24T15:06:47;12.82;;;4.20;;
10303;SDS011;5197;48.152;8.590;2023-08-24T15:09:14;10.73;;;4.25;;
10303;SDS011;5197;48.152;8.590;2023-08-24T15:11:41;6.93;;;3.83;;
10303;SDS011;5197;48.152;8.590;2023-08-24T15:14:08;15.20;;;4.20;;
10303;SDS011;5197;48.152;8.590;2023-08-24T15:16:35;11.35;;;4.03;;
10303;SDS011;5197;48.152;8.590;2023-08-24T15:19:03;11.75;;;4.40;;
10303;SDS011;5197;48.152;8.590;2023-08-24T15:21:30;12.80;;;3.90;;
10303;SDS011;5197;48.152;8.590;2023-08-24T15:23:57;14.00;;;4.40;;
10303;SDS011;5197;48.152;8.590;2023-08-24T15:26:24;10.07;;;3.47;;
10303;SDS011;5197;48.152;8.590;2023-08-24T15:29:07;7.63;;;3.08;;
10303;SDS011;5197;48.152;8.590;2023-08-24T15:31:42;12.63;;;3.65;;
10303;SDS011;5197;48.152;8.590;2023-08-24T15:34:14;10.23;;;3.38;;
10303;SDS011;5197;48.152;8.590;2023-08-24T15:36:41;14.15;;;3.83;;
10303;SDS011;5197;48.152;8.590;2023-08-24T15:39:08;8.75;;;3.00;;
10303;SDS011;5197;48.152;8.590;2023-08-24T15:41:36;11.40;;;3.28;;
10303;SDS011;5197;48.152;8.590;2023-08-24T15:44:03;16.45;;;3.63;;
10303;SDS011;5197;48.152;8.590;2023-08-24T15:46:30;16.17;;;3.15;;
10303;SDS011;5197;48.152;8.590;2023-08-24T15:48:57;15.00;;;3.58;;
10303;SDS011;5197;48.152;8.590;2023-08-24T15:51:25;8.60;;;3.17;;
10303;SDS011;5197;48.152;8.590;2023-08-24T15:53:52;11.70;;;3.40;;
10303;SDS011;5197;48.152;8.590;2023-08-24T15:56:20;12.20;;;3.25;;
10303;SDS011;5197;48.152;8.590;2023-08-24T15:58:47;10.15;;;3.67;;
10303;SDS011;5197;48.152;8.590;2023-08-24T16:01:14;12.27;;;3.78;;
10303;SDS011;5197;48.152;8.590;2023-08-24T16:03:41;16.60;;;4.63;;
10303;SDS011;5197;48.152;8.590;2023-08-24T16:06:09;13.18;;;4.05;;
10303;SDS011;5197;48.152;8.590;2023-08-24T16:08:36;17.60;;;4.20;;
10303;SDS011;5197;48.152;8.590;2023-08-24T16:11:04;17.90;;;4.15;;
10303;SDS011;5197;48.152;8.590;2023-08-24T16:13:31;16.92;;;4.25;;
10303;SDS011;5197;48.152;8.590;2023-08-24T16:15:58;9.15;;;3.83;;
10303;SDS011;5197;48.152;8.590;2023-08-24T16:18:26;10.60;;;3.72;;
10303;SDS011;5197;48.152;8.590;2023-08-24T16:20:54;14.95;;;3.60;;
10303;SDS011;5197;48.152;8.590;2023-08-24T16:23:21;10.85;;;3.47;;
10303;SDS011;5197;48.152;8.590;2023-08-24T16:25:48;10.32;;;3.80;;
10303;SDS011;5197;48.152;8.590;2023-08-24T16:28:16;7.47;;;4.18;;
10303;SDS011;5197;48.152;8.590;2023-08-24T16:30:46;9.43;;;3.92;;
10303;SDS011;5197;48.152;8.590;2023-08-24T16:33:15;9.75;;;3.78;;
10303;SDS011;5197;48.152;8.590;2023-08-24T16:35:45;13.07;;;4.43;;
10303;SDS011;5197;48.152;8.590;2023-08-24T16:38:14;7.03;;;3.97;;
10303;SDS011;5197;48.152;8.590;2023-08-24T16:40:42;14.68;;;5.13;;
10303;SDS011;5197;48.152;8.590;2023-08-24T16:43:12;8.73;;;4.00;;
10303;SDS011;5197;48.152;8.590;2023-08-24T16:45:39;7.95;;;3.95;;
10303;SDS011;5197;48.152;8.590;2023-08-24T16:48:06;5.82;;;4.07;;
10303;SDS011;5197;48.152;8.590;2023-08-24T16:50:34;7.78;;;3.78;;
10303;SDS011;5197;48.152;8.590;2023-08-24T16:53:01;5.78;;;3.58;;
10303;SDS011;5197;48.152;8.590;2023-08-24T16:55:29;7.38;;;3.97;;
10303;SDS011;5197;48.152;8.590;2023-08-24T16:57:57;6.88;;;3.65;;
10303;SDS011;5197;48.152;8.590;2023-08-24T17:00:24;7.15;;;4.30;;
10303;SDS011;5197;48.152;8.590;2023-08-24T17:02:52;7.90;;;4.43;;
10303;SDS011;5197;48.152;8.590;2023-08-24T17:05:22;6.25;;;4.00;;
10303;SDS011;5197;48.152;8.590;2023-08-24T17:08:05;8.57;;;4.13;;
10303;SDS011;5197;48.152;8.590;2023-08-24T17:10:35;6.20;;;4.45;;
10303;SDS011;5197;48.152;8.590;2023-08-24T17:13:05;6.45;;;4.00;;
10303;SDS011;5197;48.152;8.590;2023-08-24T17:15:33;4.80;;;4.18;;
10303;SDS011;5197;48.152;8.590;2023-08-24T17:18:00;5.65;;;3.90;;
10303;SDS011;5197;48.152;8.590;2023-08-24T17:20:27;9.65;;;3.60;;
10303;SDS011;5197;48.152;8.590;2023-08-24T17:22:55;5.45;;;3.80;;
10303;SDS011;5197;48.152;8.590;2023-08-24T17:25:22;7.88;;;3.95;;
10303;SDS011;5197;48.152;8.590;2023-08-24T17:27:49;3.83;;;3.53;;
10303;SDS011;5197;48.152;8.590;2023-08-24T17:30:18;8.65;;;3.53;;
10303;SDS011;5197;48.152;8.590;2023-08-24T17:32:45;7.78;;;3.88;;
10303;SDS011;5197;48.152;8.590;2023-08-24T17:35:13;4.55;;;4.15;;
10303;SDS011;5197;48.152;8.590;2023-08-24T17:37:40;5.72;;;3.92;;
10303;SDS011;5197;48.152;8.590;2023-08-24T17:40:08;5.72;;;4.07;;
10303;SDS011;5197;48.152;8.590;2023-08-24T17:42:40;6.82;;;4.35;;
10303;SDS011;5197;48.152;8.590;2023-08-24T17:45:07;10.15;;;3.88;;
10303;SDS011;5197;48.152;8.590;2023-08-24T17:47:35;4.18;;;3.78;;
10303;SDS011;5197;48.152;8.590;2023-08-24T17:50:03;4.28;;;3.88;;
10303;SDS011;5197;48.152;8.590;2023-08-24T17:52:32;4.57;;;4.18;;
10303;SDS011;5197;48.152;8.590;2023-08-24T17:55:00;5.43;;;3.95;;
10303;SDS011;5197;48.152;8.590;2023-08-24T17:57:29;4.82;;;4.32;;
10303;SDS011;5197;48.152;8.590;2023-08-24T17:59:57;5.93;;;4.40;;
10303;SDS011;5197;48.152;8.590;2023-08-24T18:02:26;5.80;;;4.53;;
10303;SDS011;5197;48.152;8.590;2023-08-24T18:04:54;4.35;;;3.95;;
10303;SDS011;5197;48.152;8.590;2023-08-24T18:07:21;4.07;;;3.72;;
10303;SDS011;5197;48.152;8.590;2023-08-24T18:09:48;5.63;;;4.30;;